Impacts TAF Board INFO
FOR SITUATIONAL AWARENESS. NOT TO BE USED FOR FLIGHT PLANNING PURPOSES.
IDs:

KBOS - Boston/Logan Intl, MA, US

Issued at 0523 UTC 21 Feb 2017
Updated at 0727 UTC 21 Feb 2017
Potential Impact None Slight Moderate High
Time0654Z 21/08Z 21/09Z 21/10Z 21/11Z 21/12Z 21/13Z 21/14Z 21/15Z 21/16Z 21/17Z 21/18Z 21/19Z 21/20Z
Type OBS PRVL PRVL PRVL PRVL PRVL PRVL PRVL PRVL PRVL PRVL PRVL PRVL PRVL
VIS 10 >6 >6 >6 >6 >6 >6 >6 >6 >6 >6 >6 >6 >6
CIG -- -- -- -- -- -- -- -- -- -- -- -- -- --
Cover CLR SKC SKC SKC SKC SKC SKC SKC SKC SKC SKC SKC SKC SKC
FltCat VFR VFR VFR VFR VFR VFR VFR VFR VFR VFR VFR VFR VFR VFR
WX -- -- -- -- -- -- -- -- -- -- -- -- -- --
WDir 340 340 340 340 340 340 340 340 340 340 340 340 340 340
WSpd 6 6 6 6 6 6 6 6 6 6 6 6 6 6
WGst -- -- -- -- -- -- -- -- -- -- -- -- -- --

Raw TAF
KBOS 210523Z 2106/2212 34006KT P6SM SKC
  FM212100 14004KT P6SM BKN200
  FM220400 19006KT P6SM BKN130
  FM220800 21006KT P6SM VCSH OVC050


Raw METAR
KBOS 210654Z 34006KT 10SM CLR M01/M09 A3036 RMK AO2 SLP281 T10061089 $
KBOS 210554Z 33007KT 10SM CLR 00/M09 A3037 RMK AO2 SLP284 T00001089 10044 20000 51008 $
KBOS 210454Z 33007KT 10SM CLR 01/M09 A3037 RMK AO2 SLP283 T00061094 400890006 $

METAR Board
Radar Display
Forecast Discussion

FOR SITUATIONAL AWARENESS. NOT TO BE USED FOR FLIGHT PLANNING PURPOSES.

Page loaded:  07:27 UTC  |   11:27 PM Pacific  |   12:27 AM Mountain  |   01:27 AM Central  |   02:27 AM Eastern

 

ADVISORIES

FORECASTS

FORECASTS

OBSERVATIONS

USER TOOLS

ABOUT US